sensor_id;sensor_type;location;lat;lon;timestamp;P1;durP1;ratioP1;P2;durP2;ratioP2
73857;SDS011;62195;55.030;73.278;2022-10-16T00:01:27;34.45;;;12.27;;
73857;SDS011;62195;55.030;73.278;2022-10-16T00:03:56;23.27;;;11.75;;
73857;SDS011;62195;55.030;73.278;2022-10-16T00:06:24;20.33;;;12.02;;
73857;SDS011;62195;55.030;73.278;2022-10-16T00:08:51;22.08;;;11.95;;
73857;SDS011;62195;55.030;73.278;2022-10-16T00:13:46;25.15;;;12.27;;
73857;SDS011;62195;55.030;73.278;2022-10-16T00:16:14;22.77;;;12.38;;
73857;SDS011;62195;55.030;73.278;2022-10-16T00:18:42;24.08;;;11.95;;
73857;SDS011;62195;55.030;73.278;2022-10-16T00:21:13;22.40;;;12.10;;
73857;SDS011;62195;55.030;73.278;2022-10-16T00:23:46;25.13;;;13.15;;
73857;SDS011;62195;55.030;73.278;2022-10-16T00:26:17;21.45;;;12.35;;
73857;SDS011;62195;55.030;73.278;2022-10-16T00:28:45;23.15;;;12.50;;
73857;SDS011;62195;55.030;73.278;2022-10-16T00:31:12;20.42;;;12.77;;
73857;SDS011;62195;55.030;73.278;2022-10-16T00:33:39;25.05;;;13.00;;
73857;SDS011;62195;55.030;73.278;2022-10-16T00:36:06;25.02;;;13.25;;
73857;SDS011;62195;55.030;73.278;2022-10-16T00:38:35;21.02;;;12.98;;
73857;SDS011;62195;55.030;73.278;2022-10-16T00:41:03;27.23;;;13.38;;
73857;SDS011;62195;55.030;73.278;2022-10-16T00:43:41;24.45;;;12.23;;
73857;SDS011;62195;55.030;73.278;2022-10-16T00:46:35;27.73;;;11.98;;
73857;SDS011;62195;55.030;73.278;2022-10-16T00:51:41;22.92;;;12.13;;
73857;SDS011;62195;55.030;73.278;2022-10-16T00:54:21;26.20;;;11.75;;
73857;SDS011;62195;55.030;73.278;2022-10-16T00:56:50;20.25;;;12.05;;
73857;SDS011;62195;55.030;73.278;2022-10-16T01:01:43;30.48;;;14.32;;
73857;SDS011;62195;55.030;73.278;2022-10-16T01:04:09;26.00;;;14.68;;
73857;SDS011;62195;55.030;73.278;2022-10-16T01:09:45;29.60;;;14.52;;
73857;SDS011;62195;55.030;73.278;2022-10-16T01:12:23;22.58;;;14.25;;
73857;SDS011;62195;55.030;73.278;2022-10-16T01:15:18;26.92;;;14.93;;
73857;SDS011;62195;55.030;73.278;2022-10-16T01:17:56;32.58;;;15.63;;
73857;SDS011;62195;55.030;73.278;2022-10-16T01:20:49;24.63;;;14.80;;
73857;SDS011;62195;55.030;73.278;2022-10-16T01:23:44;28.52;;;17.17;;
73857;SDS011;62195;55.030;73.278;2022-10-16T01:31:56;32.63;;;16.35;;
73857;SDS011;62195;55.030;73.278;2022-10-16T01:34:30;34.65;;;16.98;;
73857;SDS011;62195;55.030;73.278;2022-10-16T01:37:04;31.90;;;16.10;;
73857;SDS011;62195;55.030;73.278;2022-10-16T01:39:35;26.90;;;15.40;;
73857;SDS011;62195;55.030;73.278;2022-10-16T01:42:25;27.17;;;15.43;;
73857;SDS011;62195;55.030;73.278;2022-10-16T01:45:01;25.73;;;14.80;;
73857;SDS011;62195;55.030;73.278;2022-10-16T01:47:28;29.80;;;15.52;;
73857;SDS011;62195;55.030;73.278;2022-10-16T01:49:56;26.77;;;15.82;;
73857;SDS011;62195;55.030;73.278;2022-10-16T01:52:26;27.15;;;14.75;;
73857;SDS011;62195;55.030;73.278;2022-10-16T01:54:54;31.02;;;13.73;;
73857;SDS011;62195;55.030;73.278;2022-10-16T01:57:24;26.88;;;12.90;;
73857;SDS011;62195;55.030;73.278;2022-10-16T01:59:54;23.83;;;12.35;;
73857;SDS011;62195;55.030;73.278;2022-10-16T02:02:24;24.98;;;12.02;;
73857;SDS011;62195;55.030;73.278;2022-10-16T02:04:58;23.73;;;12.38;;
73857;SDS011;62195;55.030;73.278;2022-10-16T02:07:30;29.10;;;14.10;;
73857;SDS011;62195;55.030;73.278;2022-10-16T02:09:57;21.35;;;10.75;;
73857;SDS011;62195;55.030;73.278;2022-10-16T02:12:30;22.08;;;10.55;;
73857;SDS011;62195;55.030;73.278;2022-10-16T02:14:59;19.38;;;10.38;;
73857;SDS011;62195;55.030;73.278;2022-10-16T02:17:26;24.27;;;10.63;;
73857;SDS011;62195;55.030;73.278;2022-10-16T02:19:53;19.60;;;10.10;;
73857;SDS011;62195;55.030;73.278;2022-10-16T02:22:24;19.52;;;9.88;;
73857;SDS011;62195;55.030;73.278;2022-10-16T02:27:41;17.90;;;9.70;;
73857;SDS011;62195;55.030;73.278;2022-10-16T02:30:23;21.42;;;9.32;;
73857;SDS011;62195;55.030;73.278;2022-10-16T02:32:58;19.50;;;9.70;;
73857;SDS011;62195;55.030;73.278;2022-10-16T02:35:37;19.38;;;8.27;;
73857;SDS011;62195;55.030;73.278;2022-10-16T02:38:04;18.80;;;8.93;;
73857;SDS011;62195;55.030;73.278;2022-10-16T02:40:32;13.68;;;8.00;;
73857;SDS011;62195;55.030;73.278;2022-10-16T02:42:58;19.23;;;9.07;;
73857;SDS011;62195;55.030;73.278;2022-10-16T02:45:25;19.35;;;8.45;;
73857;SDS011;62195;55.030;73.278;2022-10-16T02:47:51;15.90;;;8.55;;
73857;SDS011;62195;55.030;73.278;2022-10-16T02:50:17;19.15;;;8.88;;
73857;SDS011;62195;55.030;73.278;2022-10-16T02:52:44;23.85;;;9.57;;
73857;SDS011;62195;55.030;73.278;2022-10-16T02:55:10;21.13;;;8.77;;
73857;SDS011;62195;55.030;73.278;2022-10-16T02:57:36;16.65;;;9.23;;
73857;SDS011;62195;55.030;73.278;2022-10-16T03:00:03;19.02;;;9.73;;
73857;SDS011;62195;55.030;73.278;2022-10-16T03:02:31;18.80;;;9.45;;
73857;SDS011;62195;55.030;73.278;2022-10-16T03:04:57;21.08;;;9.40;;
73857;SDS011;62195;55.030;73.278;2022-10-16T03:07:24;18.08;;;10.30;;
73857;SDS011;62195;55.030;73.278;2022-10-16T03:09:50;21.83;;;9.98;;
73857;SDS011;62195;55.030;73.278;2022-10-16T03:12:16;18.85;;;9.75;;
73857;SDS011;62195;55.030;73.278;2022-10-16T03:14:42;22.13;;;10.10;;
73857;SDS011;62195;55.030;73.278;2022-10-16T03:17:09;17.08;;;9.85;;
73857;SDS011;62195;55.030;73.278;2022-10-16T03:19:35;16.63;;;10.15;;
73857;SDS011;62195;55.030;73.278;2022-10-16T03:22:01;22.67;;;10.40;;
73857;SDS011;62195;55.030;73.278;2022-10-16T03:24:28;25.27;;;10.77;;
73857;SDS011;62195;55.030;73.278;2022-10-16T03:27:04;20.13;;;10.40;;
73857;SDS011;62195;55.030;73.278;2022-10-16T03:29:30;25.83;;;11.18;;
73857;SDS011;62195;55.030;73.278;2022-10-16T03:31:58;20.90;;;10.43;;
73857;SDS011;62195;55.030;73.278;2022-10-16T03:34:25;23.70;;;10.55;;
73857;SDS011;62195;55.030;73.278;2022-10-16T03:36:51;27.25;;;10.75;;
73857;SDS011;62195;55.030;73.278;2022-10-16T03:39:18;31.05;;;11.88;;
73857;SDS011;62195;55.030;73.278;2022-10-16T03:41:45;29.30;;;10.63;;
73857;SDS011;62195;55.030;73.278;2022-10-16T03:44:14;34.67;;;11.00;;
73857;SDS011;62195;55.030;73.278;2022-10-16T03:46:40;33.80;;;11.20;;
73857;SDS011;62195;55.030;73.278;2022-10-16T03:49:08;26.05;;;10.98;;
73857;SDS011;62195;55.030;73.278;2022-10-16T03:51:34;32.03;;;10.63;;
73857;SDS011;62195;55.030;73.278;2022-10-16T03:54:02;22.98;;;10.82;;
73857;SDS011;62195;55.030;73.278;2022-10-16T03:56:34;32.22;;;11.35;;
73857;SDS011;62195;55.030;73.278;2022-10-16T03:59:10;22.30;;;11.55;;
73857;SDS011;62195;55.030;73.278;2022-10-16T04:01:37;32.38;;;11.18;;
73857;SDS011;62195;55.030;73.278;2022-10-16T04:04:03;25.70;;;11.73;;
73857;SDS011;62195;55.030;73.278;2022-10-16T04:06:30;25.42;;;11.95;;
73857;SDS011;62195;55.030;73.278;2022-10-16T04:08:56;21.92;;;13.38;;
73857;SDS011;62195;55.030;73.278;2022-10-16T04:11:22;27.17;;;12.65;;
73857;SDS011;62195;55.030;73.278;2022-10-16T04:13:49;24.42;;;11.85;;
73857;SDS011;62195;55.030;73.278;2022-10-16T04:16:15;27.02;;;12.35;;
73857;SDS011;62195;55.030;73.278;2022-10-16T04:18:41;30.50;;;13.55;;
73857;SDS011;62195;55.030;73.278;2022-10-16T04:21:07;27.52;;;12.52;;
73857;SDS011;62195;55.030;73.278;2022-10-16T04:23:34;31.23;;;13.07;;
73857;SDS011;62195;55.030;73.278;2022-10-16T04:26:00;31.45;;;13.52;;
73857;SDS011;62195;55.030;73.278;2022-10-16T04:28:27;36.28;;;13.95;;
73857;SDS011;62195;55.030;73.278;2022-10-16T04:30:59;24.77;;;13.20;;
73857;SDS011;62195;55.030;73.278;2022-10-16T04:33:35;27.33;;;13.45;;
73857;SDS011;62195;55.030;73.278;2022-10-16T04:36:02;26.42;;;14.10;;
73857;SDS011;62195;55.030;73.278;2022-10-16T04:38:29;39.13;;;14.20;;
73857;SDS011;62195;55.030;73.278;2022-10-16T04:40:55;39.78;;;14.15;;
73857;SDS011;62195;55.030;73.278;2022-10-16T04:43:23;33.58;;;12.95;;
73857;SDS011;62195;55.030;73.278;2022-10-16T04:45:49;31.58;;;13.20;;
73857;SDS011;62195;55.030;73.278;2022-10-16T04:48:17;31.25;;;13.63;;
73857;SDS011;62195;55.030;73.278;2022-10-16T04:50:54;32.00;;;12.98;;
73857;SDS011;62195;55.030;73.278;2022-10-16T04:53:21;29.50;;;14.45;;
73857;SDS011;62195;55.030;73.278;2022-10-16T04:55:47;31.30;;;14.27;;
73857;SDS011;62195;55.030;73.278;2022-10-16T04:58:14;28.40;;;13.50;;
73857;SDS011;62195;55.030;73.278;2022-10-16T05:00:40;26.20;;;13.52;;
73857;SDS011;62195;55.030;73.278;2022-10-16T05:03:16;34.53;;;14.20;;
73857;SDS011;62195;55.030;73.278;2022-10-16T05:05:43;40.78;;;15.13;;
73857;SDS011;62195;55.030;73.278;2022-10-16T05:08:15;30.92;;;14.75;;
73857;SDS011;62195;55.030;73.278;2022-10-16T05:10:52;36.17;;;15.77;;
73857;SDS011;62195;55.030;73.278;2022-10-16T05:13:19;33.83;;;14.95;;
73857;SDS011;62195;55.030;73.278;2022-10-16T05:15:55;37.42;;;15.38;;
73857;SDS011;62195;55.030;73.278;2022-10-16T05:18:21;35.97;;;15.52;;
73857;SDS011;62195;55.030;73.278;2022-10-16T05:20:47;34.42;;;14.48;;
73857;SDS011;62195;55.030;73.278;2022-10-16T05:23:14;29.67;;;16.35;;
73857;SDS011;62195;55.030;73.278;2022-10-16T05:25:53;37.67;;;15.35;;
73857;SDS011;62195;55.030;73.278;2022-10-16T05:28:24;32.20;;;15.25;;
73857;SDS011;62195;55.030;73.278;2022-10-16T05:30:52;32.00;;;14.48;;
73857;SDS011;62195;55.030;73.278;2022-10-16T05:33:29;39.85;;;16.00;;
73857;SDS011;62195;55.030;73.278;2022-10-16T05:36:19;45.78;;;16.85;;
73857;SDS011;62195;55.030;73.278;2022-10-16T05:40:05;39.38;;;16.85;;
73857;SDS011;62195;55.030;73.278;2022-10-16T05:42:32;41.05;;;17.67;;
73857;SDS011;62195;55.030;73.278;2022-10-16T05:44:58;46.05;;;17.63;;
73857;SDS011;62195;55.030;73.278;2022-10-16T05:47:25;31.05;;;16.40;;
73857;SDS011;62195;55.030;73.278;2022-10-16T05:49:51;28.85;;;15.93;;
73857;SDS011;62195;55.030;73.278;2022-10-16T05:52:20;39.35;;;15.63;;
73857;SDS011;62195;55.030;73.278;2022-10-16T05:54:46;35.30;;;16.75;;
73857;SDS011;62195;55.030;73.278;2022-10-16T05:57:18;46.47;;;16.17;;
73857;SDS011;62195;55.030;73.278;2022-10-16T05:59:57;31.52;;;12.95;;
73857;SDS011;62195;55.030;73.278;2022-10-16T06:02:39;22.70;;;11.07;;
73857;SDS011;62195;55.030;73.278;2022-10-16T06:05:08;19.67;;;9.32;;
73857;SDS011;62195;55.030;73.278;2022-10-16T06:07:34;21.98;;;9.27;;
73857;SDS011;62195;55.030;73.278;2022-10-16T06:10:02;19.92;;;9.55;;
73857;SDS011;62195;55.030;73.278;2022-10-16T06:12:29;21.70;;;9.88;;
73857;SDS011;62195;55.030;73.278;2022-10-16T06:14:55;23.02;;;8.90;;
73857;SDS011;62195;55.030;73.278;2022-10-16T06:17:30;20.27;;;8.05;;
73857;SDS011;62195;55.030;73.278;2022-10-16T06:19:57;18.55;;;8.10;;
73857;SDS011;62195;55.030;73.278;2022-10-16T06:22:33;20.70;;;9.50;;
73857;SDS011;62195;55.030;73.278;2022-10-16T06:24:59;18.63;;;8.02;;
73857;SDS011;62195;55.030;73.278;2022-10-16T06:27:26;18.38;;;8.10;;
73857;SDS011;62195;55.030;73.278;2022-10-16T06:29:52;32.95;;;8.60;;
73857;SDS011;62195;55.030;73.278;2022-10-16T06:32:18;35.63;;;8.55;;
73857;SDS011;62195;55.030;73.278;2022-10-16T06:34:49;27.45;;;8.18;;
73857;SDS011;62195;55.030;73.278;2022-10-16T06:37:21;15.93;;;7.20;;
73857;SDS011;62195;55.030;73.278;2022-10-16T06:39:47;11.90;;;7.07;;
73857;SDS011;62195;55.030;73.278;2022-10-16T06:42:15;16.80;;;7.22;;
73857;SDS011;62195;55.030;73.278;2022-10-16T06:44:46;18.33;;;7.80;;
73857;SDS011;62195;55.030;73.278;2022-10-16T06:47:17;21.20;;;7.00;;
73857;SDS011;62195;55.030;73.278;2022-10-16T06:49:47;17.35;;;7.65;;
73857;SDS011;62195;55.030;73.278;2022-10-16T06:52:18;14.20;;;7.38;;
73857;SDS011;62195;55.030;73.278;2022-10-16T06:54:47;13.40;;;7.45;;
73857;SDS011;62195;55.030;73.278;2022-10-16T06:57:14;13.38;;;7.35;;
73857;SDS011;62195;55.030;73.278;2022-10-16T06:59:46;23.63;;;8.00;;
73857;SDS011;62195;55.030;73.278;2022-10-16T07:02:17;14.60;;;7.55;;
73857;SDS011;62195;55.030;73.278;2022-10-16T07:04:44;14.05;;;6.88;;
73857;SDS011;62195;55.030;73.278;2022-10-16T07:07:10;16.25;;;6.95;;
73857;SDS011;62195;55.030;73.278;2022-10-16T07:09:36;24.48;;;7.28;;
73857;SDS011;62195;55.030;73.278;2022-10-16T07:12:02;14.60;;;6.25;;
73857;SDS011;62195;55.030;73.278;2022-10-16T07:14:29;12.77;;;7.20;;
73857;SDS011;62195;55.030;73.278;2022-10-16T07:16:55;11.25;;;6.20;;
73857;SDS011;62195;55.030;73.278;2022-10-16T07:19:21;17.88;;;7.40;;
73857;SDS011;62195;55.030;73.278;2022-10-16T07:21:58;17.83;;;6.68;;
73857;SDS011;62195;55.030;73.278;2022-10-16T07:24:34;15.00;;;6.30;;
73857;SDS011;62195;55.030;73.278;2022-10-16T07:27:01;12.88;;;6.10;;
73857;SDS011;62195;55.030;73.278;2022-10-16T07:29:27;11.70;;;6.65;;
73857;SDS011;62195;55.030;73.278;2022-10-16T07:31:53;15.60;;;6.70;;
73857;SDS011;62195;55.030;73.278;2022-10-16T07:34:20;22.02;;;7.60;;
73857;SDS011;62195;55.030;73.278;2022-10-16T07:36:49;18.85;;;8.25;;
73857;SDS011;62195;55.030;73.278;2022-10-16T07:39:16;18.98;;;8.68;;
73857;SDS011;62195;55.030;73.278;2022-10-16T07:41:44;20.90;;;7.88;;
73857;SDS011;62195;55.030;73.278;2022-10-16T07:44:10;59.50;;;26.42;;
73857;SDS011;62195;55.030;73.278;2022-10-16T07:46:37;44.58;;;20.48;;
73857;SDS011;62195;55.030;73.278;2022-10-16T07:49:03;33.90;;;16.00;;
73857;SDS011;62195;55.030;73.278;2022-10-16T07:51:30;25.15;;;10.20;;
73857;SDS011;62195;55.030;73.278;2022-10-16T07:53:56;28.73;;;11.52;;
73857;SDS011;62195;55.030;73.278;2022-10-16T07:56:22;29.60;;;13.43;;
73857;SDS011;62195;55.030;73.278;2022-10-16T07:58:49;26.38;;;10.20;;
73857;SDS011;62195;55.030;73.278;2022-10-16T08:01:16;14.00;;;6.90;;
73857;SDS011;62195;55.030;73.278;2022-10-16T08:03:44;18.27;;;7.72;;
73857;SDS011;62195;55.030;73.278;2022-10-16T08:06:12;15.55;;;7.60;;
73857;SDS011;62195;55.030;73.278;2022-10-16T08:08:38;13.98;;;7.47;;
73857;SDS011;62195;55.030;73.278;2022-10-16T08:11:04;19.80;;;7.82;;
73857;SDS011;62195;55.030;73.278;2022-10-16T08:13:31;17.30;;;7.63;;
73857;SDS011;62195;55.030;73.278;2022-10-16T08:15:57;25.15;;;7.60;;
73857;SDS011;62195;55.030;73.278;2022-10-16T08:18:24;21.90;;;8.80;;
73857;SDS011;62195;55.030;73.278;2022-10-16T08:20:59;16.67;;;9.25;;
73857;SDS011;62195;55.030;73.278;2022-10-16T08:23:26;25.58;;;10.13;;
73857;SDS011;62195;55.030;73.278;2022-10-16T08:25:53;22.20;;;10.48;;
73857;SDS011;62195;55.030;73.278;2022-10-16T08:28:21;35.42;;;12.20;;
73857;SDS011;62195;55.030;73.278;2022-10-16T08:30:48;17.17;;;9.30;;
73857;SDS011;62195;55.030;73.278;2022-10-16T08:33:14;17.90;;;7.95;;
73857;SDS011;62195;55.030;73.278;2022-10-16T08:35:49;12.63;;;7.30;;
73857;SDS011;62195;55.030;73.278;2022-10-16T08:38:16;15.02;;;7.65;;
73857;SDS011;62195;55.030;73.278;2022-10-16T08:40:43;9.98;;;5.85;;
73857;SDS011;62195;55.030;73.278;2022-10-16T08:48:57;9.68;;;4.90;;
73857;SDS011;62195;55.030;73.278;2022-10-16T08:51:29;9.90;;;5.32;;
73857;SDS011;62195;55.030;73.278;2022-10-16T08:54:01;13.77;;;6.30;;
73857;SDS011;62195;55.030;73.278;2022-10-16T08:56:30;11.75;;;5.72;;
73857;SDS011;62195;55.030;73.278;2022-10-16T08:58:57;8.02;;;5.75;;
73857;SDS011;62195;55.030;73.278;2022-10-16T09:01:28;9.13;;;5.30;;
73857;SDS011;62195;55.030;73.278;2022-10-16T09:06:55;18.23;;;6.97;;
73857;SDS011;62195;55.030;73.278;2022-10-16T09:12:32;9.13;;;5.10;;
73857;SDS011;62195;55.030;73.278;2022-10-16T09:23:21;11.10;;;6.25;;
73857;SDS011;62195;55.030;73.278;2022-10-16T09:25:52;10.48;;;6.10;;
73857;SDS011;62195;55.030;73.278;2022-10-16T09:28:29;10.90;;;6.82;;
73857;SDS011;62195;55.030;73.278;2022-10-16T09:30:56;9.70;;;6.60;;
73857;SDS011;62195;55.030;73.278;2022-10-16T09:33:28;16.52;;;7.35;;
73857;SDS011;62195;55.030;73.278;2022-10-16T09:35:59;9.23;;;5.97;;
73857;SDS011;62195;55.030;73.278;2022-10-16T09:38:31;13.25;;;6.72;;
73857;SDS011;62195;55.030;73.278;2022-10-16T09:41:22;28.25;;;7.53;;
73857;SDS011;62195;55.030;73.278;2022-10-16T09:43:52;13.35;;;7.05;;
73857;SDS011;62195;55.030;73.278;2022-10-16T09:48:54;19.60;;;8.32;;
73857;SDS011;62195;55.030;73.278;2022-10-16T09:51:27;12.60;;;7.70;;
73857;SDS011;62195;55.030;73.278;2022-10-16T09:54:15;14.00;;;7.32;;
73857;SDS011;62195;55.030;73.278;2022-10-16T09:56:43;17.83;;;9.25;;
73857;SDS011;62195;55.030;73.278;2022-10-16T09:59:13;14.15;;;7.47;;
73857;SDS011;62195;55.030;73.278;2022-10-16T10:01:44;12.98;;;7.18;;
73857;SDS011;62195;55.030;73.278;2022-10-16T10:04:19;16.65;;;8.10;;
73857;SDS011;62195;55.030;73.278;2022-10-16T10:06:48;17.70;;;8.68;;
73857;SDS011;62195;55.030;73.278;2022-10-16T10:09:19;15.45;;;8.32;;
73857;SDS011;62195;55.030;73.278;2022-10-16T10:14:30;15.80;;;8.65;;
73857;SDS011;62195;55.030;73.278;2022-10-16T10:39:00;6.30;;;4.18;;
73857;SDS011;62195;55.030;73.278;2022-10-16T10:50:41;4.57;;;3.42;;
73857;SDS011;62195;55.030;73.278;2022-10-16T11:05:46;24.02;;;10.20;;
73857;SDS011;62195;55.030;73.278;2022-10-16T11:08:34;18.75;;;7.40;;
73857;SDS011;62195;55.030;73.278;2022-10-16T11:11:08;15.40;;;6.13;;
73857;SDS011;62195;55.030;73.278;2022-10-16T11:16:49;17.52;;;8.85;;
73857;SDS011;62195;55.030;73.278;2022-10-16T11:25:02;15.90;;;8.73;;
73857;SDS011;62195;55.030;73.278;2022-10-16T11:27:52;13.75;;;8.13;;
73857;SDS011;62195;55.030;73.278;2022-10-16T11:30:26;17.08;;;7.97;;
73857;SDS011;62195;55.030;73.278;2022-10-16T11:38:18;25.13;;;13.02;;
73857;SDS011;62195;55.030;73.278;2022-10-16T11:40:50;16.40;;;7.95;;
73857;SDS011;62195;55.030;73.278;2022-10-16T11:43:29;10.55;;;5.80;;
73857;SDS011;62195;55.030;73.278;2022-10-16T11:46:13;11.40;;;6.15;;
73857;SDS011;62195;55.030;73.278;2022-10-16T11:48:51;15.65;;;5.50;;
73857;SDS011;62195;55.030;73.278;2022-10-16T11:51:35;15.57;;;5.53;;
73857;SDS011;62195;55.030;73.278;2022-10-16T11:57:14;9.75;;;4.10;;
73857;SDS011;62195;55.030;73.278;2022-10-16T12:10:47;18.30;;;6.40;;
73857;SDS011;62195;55.030;73.278;2022-10-16T12:16:19;11.18;;;5.47;;
73857;SDS011;62195;55.030;73.278;2022-10-16T12:18:49;8.95;;;4.10;;
73857;SDS011;62195;55.030;73.278;2022-10-16T12:21:31;7.85;;;4.57;;
73857;SDS011;62195;55.030;73.278;2022-10-16T12:23:58;11.90;;;4.40;;
73857;SDS011;62195;55.030;73.278;2022-10-16T12:26:29;14.05;;;4.10;;
73857;SDS011;62195;55.030;73.278;2022-10-16T12:32:00;8.57;;;4.00;;
73857;SDS011;62195;55.030;73.278;2022-10-16T12:34:29;9.57;;;4.10;;
73857;SDS011;62195;55.030;73.278;2022-10-16T12:37:08;9.20;;;4.38;;
73857;SDS011;62195;55.030;73.278;2022-10-16T12:39:46;9.07;;;4.35;;
73857;SDS011;62195;55.030;73.278;2022-10-16T12:42:21;10.88;;;4.60;;
73857;SDS011;62195;55.030;73.278;2022-10-16T12:44:59;10.38;;;4.65;;
73857;SDS011;62195;55.030;73.278;2022-10-16T12:49:58;21.98;;;5.65;;
73857;SDS011;62195;55.030;73.278;2022-10-16T12:55:15;13.77;;;4.13;;
73857;SDS011;62195;55.030;73.278;2022-10-16T13:03:25;12.50;;;5.10;;
73857;SDS011;62195;55.030;73.278;2022-10-16T13:28:04;24.48;;;11.25;;
73857;SDS011;62195;55.030;73.278;2022-10-16T13:30:40;24.67;;;12.48;;
73857;SDS011;62195;55.030;73.278;2022-10-16T13:33:19;21.85;;;11.80;;
73857;SDS011;62195;55.030;73.278;2022-10-16T13:35:52;29.60;;;17.60;;
73857;SDS011;62195;55.030;73.278;2022-10-16T13:38:23;36.42;;;17.92;;
73857;SDS011;62195;55.030;73.278;2022-10-16T13:40:56;34.90;;;18.15;;
73857;SDS011;62195;55.030;73.278;2022-10-16T13:43:27;39.08;;;22.00;;
73857;SDS011;62195;55.030;73.278;2022-10-16T13:46:01;50.88;;;23.02;;
73857;SDS011;62195;55.030;73.278;2022-10-16T13:48:33;46.25;;;24.08;;
73857;SDS011;62195;55.030;73.278;2022-10-16T13:51:04;54.30;;;25.63;;
73857;SDS011;62195;55.030;73.278;2022-10-16T13:53:33;48.28;;;24.02;;
73857;SDS011;62195;55.030;73.278;2022-10-16T13:58:32;42.58;;;22.17;;
73857;SDS011;62195;55.030;73.278;2022-10-16T14:01:06;41.72;;;21.20;;
73857;SDS011;62195;55.030;73.278;2022-10-16T14:03:59;37.88;;;19.88;;
73857;SDS011;62195;55.030;73.278;2022-10-16T14:06:39;45.75;;;20.83;;
73857;SDS011;62195;55.030;73.278;2022-10-16T14:09:08;42.90;;;21.05;;
73857;SDS011;62195;55.030;73.278;2022-10-16T14:12:08;42.63;;;21.08;;
73857;SDS011;62195;55.030;73.278;2022-10-16T14:14:35;36.33;;;20.23;;
73857;SDS011;62195;55.030;73.278;2022-10-16T14:17:29;47.20;;;21.85;;
73857;SDS011;62195;55.030;73.278;2022-10-16T14:19:59;47.88;;;22.52;;
73857;SDS011;62195;55.030;73.278;2022-10-16T14:22:34;39.47;;;20.88;;
73857;SDS011;62195;55.030;73.278;2022-10-16T14:25:15;46.78;;;22.25;;
73857;SDS011;62195;55.030;73.278;2022-10-16T14:27:57;47.05;;;22.00;;
73857;SDS011;62195;55.030;73.278;2022-10-16T14:30:26;43.10;;;21.70;;
73857;SDS011;62195;55.030;73.278;2022-10-16T14:33:19;35.45;;;21.23;;
73857;SDS011;62195;55.030;73.278;2022-10-16T14:36:05;44.97;;;21.90;;
73857;SDS011;62195;55.030;73.278;2022-10-16T14:38:38;40.03;;;22.40;;
73857;SDS011;62195;55.030;73.278;2022-10-16T14:41:05;45.75;;;22.25;;
73857;SDS011;62195;55.030;73.278;2022-10-16T14:43:42;47.88;;;24.20;;
73857;SDS011;62195;55.030;73.278;2022-10-16T14:47:14;45.72;;;23.73;;
73857;SDS011;62195;55.030;73.278;2022-10-16T14:49:50;54.80;;;24.08;;
73857;SDS011;62195;55.030;73.278;2022-10-16T14:52:17;57.72;;;23.95;;
73857;SDS011;62195;55.030;73.278;2022-10-16T14:54:47;42.90;;;23.48;;
73857;SDS011;62195;55.030;73.278;2022-10-16T14:57:22;47.90;;;23.30;;
73857;SDS011;62195;55.030;73.278;2022-10-16T14:59:56;64.30;;;24.92;;
73857;SDS011;62195;55.030;73.278;2022-10-16T15:07:45;59.67;;;28.52;;
73857;SDS011;62195;55.030;73.278;2022-10-16T15:10:16;56.55;;;24.00;;
73857;SDS011;62195;55.030;73.278;2022-10-16T15:12:44;49.00;;;23.90;;
73857;SDS011;62195;55.030;73.278;2022-10-16T15:17:49;54.30;;;23.65;;
73857;SDS011;62195;55.030;73.278;2022-10-16T15:20:21;47.35;;;23.73;;
73857;SDS011;62195;55.030;73.278;2022-10-16T15:23:12;41.50;;;23.58;;
73857;SDS011;62195;55.030;73.278;2022-10-16T15:25:51;44.38;;;24.13;;
73857;SDS011;62195;55.030;73.278;2022-10-16T15:28:29;45.60;;;23.73;;
73857;SDS011;62195;55.030;73.278;2022-10-16T15:31:05;42.83;;;22.88;;
73857;SDS011;62195;55.030;73.278;2022-10-16T15:33:32;50.45;;;23.52;;
73857;SDS011;62195;55.030;73.278;2022-10-16T15:36:01;50.92;;;24.35;;
73857;SDS011;62195;55.030;73.278;2022-10-16T15:38:33;46.88;;;24.00;;
73857;SDS011;62195;55.030;73.278;2022-10-16T15:41:00;40.58;;;22.83;;
73857;SDS011;62195;55.030;73.278;2022-10-16T15:43:26;46.08;;;22.70;;
73857;SDS011;62195;55.030;73.278;2022-10-16T15:46:04;39.10;;;21.98;;
73857;SDS011;62195;55.030;73.278;2022-10-16T15:48:32;41.92;;;22.58;;
73857;SDS011;62195;55.030;73.278;2022-10-16T15:50:59;40.33;;;22.67;;
73857;SDS011;62195;55.030;73.278;2022-10-16T15:53:26;40.88;;;24.80;;
73857;SDS011;62195;55.030;73.278;2022-10-16T15:55:52;51.53;;;28.50;;
73857;SDS011;62195;55.030;73.278;2022-10-16T15:58:19;47.72;;;28.35;;
73857;SDS011;62195;55.030;73.278;2022-10-16T16:00:53;53.00;;;26.48;;
73857;SDS011;62195;55.030;73.278;2022-10-16T16:03:31;48.60;;;24.60;;
73857;SDS011;62195;55.030;73.278;2022-10-16T16:05:58;36.13;;;19.98;;
73857;SDS011;62195;55.030;73.278;2022-10-16T16:08:29;34.00;;;20.55;;
73857;SDS011;62195;55.030;73.278;2022-10-16T16:10:57;35.90;;;21.60;;
73857;SDS011;62195;55.030;73.278;2022-10-16T16:13:27;40.05;;;21.58;;
73857;SDS011;62195;55.030;73.278;2022-10-16T16:15:54;51.72;;;20.67;;
73857;SDS011;62195;55.030;73.278;2022-10-16T16:18:20;38.13;;;21.58;;
73857;SDS011;62195;55.030;73.278;2022-10-16T16:20:48;37.30;;;19.23;;
73857;SDS011;62195;55.030;73.278;2022-10-16T16:23:14;36.05;;;20.00;;
73857;SDS011;62195;55.030;73.278;2022-10-16T16:25:41;21.83;;;13.30;;
73857;SDS011;62195;55.030;73.278;2022-10-16T16:28:07;30.88;;;14.25;;
73857;SDS011;62195;55.030;73.278;2022-10-16T16:30:36;20.40;;;12.63;;
73857;SDS011;62195;55.030;73.278;2022-10-16T16:33:12;21.13;;;11.07;;
73857;SDS011;62195;55.030;73.278;2022-10-16T16:35:38;22.40;;;9.38;;
73857;SDS011;62195;55.030;73.278;2022-10-16T16:38:04;15.23;;;7.57;;
73857;SDS011;62195;55.030;73.278;2022-10-16T16:40:31;12.25;;;6.82;;
73857;SDS011;62195;55.030;73.278;2022-10-16T16:43:02;9.43;;;5.35;;
73857;SDS011;62195;55.030;73.278;2022-10-16T16:45:29;10.15;;;5.40;;
73857;SDS011;62195;55.030;73.278;2022-10-16T16:48:01;7.38;;;4.90;;
73857;SDS011;62195;55.030;73.278;2022-10-16T16:50:38;15.20;;;5.75;;
73857;SDS011;62195;55.030;73.278;2022-10-16T16:53:04;10.57;;;5.32;;
73857;SDS011;62195;55.030;73.278;2022-10-16T16:55:32;9.05;;;4.53;;
73857;SDS011;62195;55.030;73.278;2022-10-16T16:58:04;9.05;;;3.92;;
73857;SDS011;62195;55.030;73.278;2022-10-16T17:00:31;8.90;;;3.95;;
73857;SDS011;62195;55.030;73.278;2022-10-16T17:02:57;11.13;;;4.07;;
73857;SDS011;62195;55.030;73.278;2022-10-16T17:05:24;4.32;;;3.08;;
73857;SDS011;62195;55.030;73.278;2022-10-16T17:07:50;7.68;;;3.25;;
73857;SDS011;62195;55.030;73.278;2022-10-16T17:10:21;4.88;;;3.72;;
73857;SDS011;62195;55.030;73.278;2022-10-16T17:12:47;6.47;;;3.38;;
73857;SDS011;62195;55.030;73.278;2022-10-16T17:15:14;7.05;;;3.10;;
73857;SDS011;62195;55.030;73.278;2022-10-16T17:17:40;6.40;;;4.03;;
73857;SDS011;62195;55.030;73.278;2022-10-16T17:20:06;5.22;;;3.20;;
73857;SDS011;62195;55.030;73.278;2022-10-16T17:22:44;5.78;;;3.00;;
73857;SDS011;62195;55.030;73.278;2022-10-16T17:25:12;4.95;;;3.30;;